Dades meteomassalio
Diari Summary for Diciembre 11, 2017 Units:  English    Metric   Both
« Previous Day
Next Day »
Diari Semanal Mensual Anual Personalitzat
  Maxima: Minima: Mijana:
Temperatura: TemperatureF °F 40.0 °F 50.8 °F
Rosada: DewpointF °F 25.1 °F 39 °F
Humitat: Humidity % 50 % 64 %
Velocitat del vent: WindSpeedMPH mph 0.0 mph 9.7 mph
Racha vent: WindSpeedGustMPH mph - -
Vent:- - West
Pressio: PressureIn in 29.23 in -
Pluja: 0.13 in    
Historical Graphs
 
 
Tabular Data for Diciembre 11, 2017
Time Temperature Dew Point Pressure Wind Wind Speed Wind Gust Humidity Rainfall Rate (Hourly) solar Conditions
TemperatureF °F DewpointF °F PressureIn in Calm     Humidity % HourlyPrecipIn in SolarRadiationWatts/m^2 W/m2 Conditions
00:01 50.0 °F 37.1 °F 29.48 in Calm     61 % 0.00 in 0.0 W/m2 CLR
00:06 50.0 °F 37.1 °F 29.47 in Calm     61 % 0.00 in 0.0 W/m2 CLR
00:11 50.0 °F 37.1 °F 29.47 in Calm     61 % 0.00 in 0.0 W/m2 CLR
00:16 50.0 °F 36.7 °F 29.47 in Calm     60 % 0.00 in 0.0 W/m2 CLR
00:21 50.0 °F 36.2 °F 29.47 in Calm     59 % 0.00 in 0.0 W/m2 CLR
00:26 49.0 °F 35.3 °F 29.47 in Calm     59 % 0.00 in 0.0 W/m2 CLR
00:31 50.0 °F 35.8 °F 29.47 in SSW 2.0 mph   58 % 0.00 in 0.0 W/m2 CLR
00:36 50.0 °F 35.8 °F 29.46 in SSW 6.9 mph 6.9 mph 58 % 0.00 in 0.0 W/m2 CLR
00:41 51.0 °F 36.7 °F 29.46 in SSW 3.5 mph 3.5 mph 58 % 0.00 in 0.0 W/m2 CLR
00:46 51.0 °F 36.3 °F 29.46 in SSW 3.5 mph 3.5 mph 57 % 0.00 in 0.0 W/m2 CLR
00:57 53.0 °F 38.2 °F 29.45 in SW 3.5 mph 3.5 mph 57 % 0.00 in 0.0 W/m2 CLR
01:02 56.0 °F 41.0 °F 29.44 in SW 3.5 mph 3.5 mph 57 % 0.00 in 0.0 W/m2 CLR
01:07 57.0 °F 41.9 °F 29.43 in SW 3.5 mph 3.5 mph 57 % 0.00 in 0.0 W/m2 CLR
01:12 58.0 °F 43.3 °F 29.42 in SW 10.4 mph 10.4 mph 58 % 0.00 in 0.0 W/m2 CLR
01:22 58.0 °F 43.3 °F 29.41 in SSW 11.5 mph 11.5 mph 58 % 0.00 in 0.0 W/m2 CLR
01:27 58.0 °F 43.3 °F 29.40 in SSW 12.7 mph 12.7 mph 58 % 0.00 in 0.0 W/m2 CLR
01:32 58.0 °F 43.3 °F 29.40 in SSW 11.5 mph 11.5 mph 58 % 0.00 in 0.0 W/m2 CLR
01:42 57.0 °F 42.8 °F 29.39 in SW 11.5 mph 11.5 mph 59 % 0.00 in 0.0 W/m2 CLR
01:47 57.0 °F 42.8 °F 29.39 in SSW 10.4 mph 10.4 mph 59 % 0.00 in 0.0 W/m2 CLR
02:07 57.0 °F 43.7 °F 29.37 in SW 11.5 mph 11.5 mph 61 % 0.00 in 0.0 W/m2 CLR
02:12 57.0 °F 43.2 °F 29.37 in SSW 11.5 mph 11.5 mph 60 % 0.00 in 0.0 W/m2 CLR
02:17 57.0 °F 43.2 °F 29.37 in SSE 11.5 mph 11.5 mph 60 % 0.00 in 0.0 W/m2 CLR
02:22 57.0 °F 42.8 °F 29.37 in South 8.1 mph 8.1 mph 59 % 0.00 in 0.0 W/m2 CLR
02:27 57.0 °F 42.8 °F 29.37 in SSW 4.6 mph 4.6 mph 59 % 0.00 in 0.0 W/m2 CLR
02:32 57.0 °F 43.2 °F 29.36 in SSW 6.0 mph 6.0 mph 60 % 0.00 in 0.0 W/m2 CLR
02:37 57.0 °F 43.2 °F 29.35 in SSW 4.0 mph 4.0 mph 60 % 0.00 in 0.0 W/m2 CLR
02:42 56.0 °F 42.7 °F 29.35 in SSW 4.6 mph 4.6 mph 61 % 0.00 in 0.0 W/m2 CLR
02:47 56.0 °F 42.7 °F 29.35 in Calm     61 % 0.00 in 0.0 W/m2 CLR
02:52 55.0 °F 41.8 °F 29.35 in West 3.5 mph   61 % 0.00 in 0.0 W/m2 CLR
02:57 55.0 °F 41.8 °F 29.35 in Calm     61 % 0.00 in 0.0 W/m2 CLR
03:02 54.0 °F 41.3 °F 29.34 in Calm     62 % 0.00 in 0.0 W/m2 CLR
03:07 54.0 °F 40.8 °F 29.34 in SSW 10.4 mph 10.4 mph 61 % 0.00 in 0.0 W/m2 CLR
03:12 55.0 °F 40.9 °F 29.33 in SSW 11.5 mph 11.5 mph 59 % 0.00 in 0.0 W/m2 CLR
03:17 56.0 °F 41.4 °F 29.33 in SW 11.5 mph 11.5 mph 58 % 0.00 in 0.0 W/m2 CLR
03:32 58.0 °F 43.3 °F 29.31 in SSW 11.0 mph 11.0 mph 58 % 0.00 in 0.0 W/m2 CLR
03:37 59.0 °F 43.8 °F 29.30 in SSW 15.0 mph 15.0 mph 57 % 0.00 in 0.0 W/m2 CLR
03:42 59.0 °F 43.8 °F 29.30 in SW 10.4 mph 10.4 mph 57 % 0.00 in 0.0 W/m2 CLR
03:47 59.0 °F 43.8 °F 29.29 in SW 17.3 mph 17.3 mph 57 % 0.00 in 0.0 W/m2 CLR
04:02 58.0 °F 44.2 °F 29.30 in SSW 14.0 mph 14.0 mph 60 % 0.00 in 0.0 W/m2 CLR
04:07 58.0 °F 44.2 °F 29.29 in SW 17.3 mph 17.3 mph 60 % 0.00 in 0.0 W/m2 CLR
04:17 58.0 °F 44.2 °F 29.28 in SSW 13.8 mph 13.8 mph 60 % 0.00 in 0.0 W/m2 CLR
04:22 58.0 °F 44.2 °F 29.27 in SSW 13.0 mph 13.0 mph 60 % 0.00 in 0.0 W/m2 CLR
04:27 58.0 °F 43.7 °F 29.27 in SSW 13.8 mph 13.8 mph 59 % 0.00 in 0.0 W/m2 CLR
04:32 58.0 °F 43.7 °F 29.27 in South 11.5 mph 11.5 mph 59 % 0.00 in 0.0 W/m2 CLR
04:37 58.0 °F 43.7 °F 29.27 in South 6.9 mph 6.9 mph 59 % 0.00 in 0.0 W/m2 CLR
04:42 57.0 °F 42.8 °F 29.27 in South 8.1 mph 8.1 mph 59 % 0.00 in 0.0 W/m2 CLR
04:47 57.0 °F 42.8 °F 29.27 in South 5.8 mph 5.8 mph 59 % 0.00 in 0.0 W/m2 CLR
04:52 56.0 °F 41.9 °F 29.26 in South 3.0 mph 3.0 mph 59 % 0.00 in 0.0 W/m2 CLR
05:02 56.0 °F 41.9 °F 29.25 in SSW 10.0 mph 10.0 mph 59 % 0.00 in 0.0 W/m2 CLR
05:12 58.0 °F 43.7 °F 29.25 in WSW 9.2 mph 9.2 mph 59 % 0.00 in 0.0 W/m2 CLR
05:22 57.0 °F 42.8 °F 29.25 in Calm     59 % 0.00 in 0.0 W/m2 CLR
05:27 57.0 °F 43.2 °F 29.26 in Calm     60 % 0.00 in 0.0 W/m2 CLR
05:37 57.0 °F 42.8 °F 29.25 in Calm     59 % 0.00 in 0.0 W/m2 CLR
05:47 57.0 °F 42.8 °F 29.23 in SSW 4.6 mph 4.6 mph 59 % 0.00 in 0.0 W/m2 CLR
05:52 57.0 °F 43.2 °F 29.23 in South 4.0 mph 4.0 mph 60 % 0.00 in 0.0 W/m2 CLR
05:57 57.0 °F 43.2 °F 29.23 in South 8.1 mph 8.1 mph 60 % 0.00 in 0.0 W/m2 CLR
06:02 57.0 °F 43.2 °F 29.23 in Calm     60 % 0.00 in 0.0 W/m2 CLR
06:12 57.0 °F 43.2 °F 29.23 in South 8.1 mph 8.1 mph 60 % 0.00 in 0.0 W/m2 CLR
06:22 57.0 °F 42.8 °F 29.23 in Calm     59 % 0.00 in 0.0 W/m2 CLR
06:27 57.0 °F 43.2 °F 29.23 in SW 3.5 mph 3.5 mph 60 % 0.00 in 0.0 W/m2 CLR
06:32 57.0 °F 42.8 °F 29.23 in SW 11.5 mph 11.5 mph 59 % 0.00 in 0.0 W/m2 CLR
06:47 58.0 °F 46.3 °F 29.27 in NNE 27.0 mph 27.0 mph 65 % 0.00 in 0.0 W/m2 CLR
06:57 53.0 °F 48.0 °F 29.29 in NNW 17.3 mph 17.3 mph 83 % 0.05 in 0.0 W/m2 RA
07:02 52.0 °F 47.6 °F 29.30 in NNW 11.5 mph 11.5 mph 85 % 0.07 in 0.0 W/m2 RA
07:07 52.0 °F 48.3 °F 29.30 in North 11.5 mph 11.5 mph 87 % 0.08 in 0.0 W/m2 RA
07:12 52.0 °F 48.6 °F 29.30 in NNW 5.8 mph 5.8 mph 88 % 0.09 in 0.0 W/m2 RA
07:17 52.0 °F 48.6 °F 29.29 in North 12.7 mph 12.7 mph 88 % 0.09 in 0.0 W/m2
07:27 51.0 °F 47.9 °F 29.28 in NW 8.1 mph 8.1 mph 89 % 0.10 in 0.0 W/m2
07:37 51.0 °F 47.9 °F 29.29 in WNW 7.0 mph 7.0 mph 89 % 0.10 in 0.0 W/m2 CLR
07:42 51.0 °F 47.9 °F 29.30 in NW 6.9 mph 6.9 mph 89 % 0.10 in 0.0 W/m2 CLR
07:47 51.0 °F 47.9 °F 29.30 in NW 9.0 mph 9.0 mph 89 % 0.10 in 0.0 W/m2 CLR
07:52 51.0 °F 47.9 °F 29.30 in NW 5.8 mph 5.8 mph 89 % 0.09 in 0.0 W/m2 CLR
07:57 51.0 °F 47.9 °F 29.30 in NW 6.9 mph 6.9 mph 89 % 0.06 in 0.0 W/m2 RA
08:02 51.0 °F 47.9 °F 29.31 in NW 9.2 mph 9.2 mph 89 % 0.04 in 0.0 W/m2
08:07 51.0 °F 47.6 °F 29.31 in NW 10.4 mph 10.4 mph 88 % 0.03 in 0.0 W/m2 CLR
08:12 51.0 °F 47.6 °F 29.30 in NW 6.9 mph 6.9 mph 88 % 0.02 in 0.0 W/m2 OVC
08:17 50.0 °F 46.6 °F 29.31 in WNW 11.5 mph 11.5 mph 88 % 0.03 in 0.0 W/m2 RA
08:22 50.0 °F 46.6 °F 29.30 in WNW 9.2 mph 9.2 mph 88 % 0.02 in 0.0 W/m2 CLR
08:32 50.0 °F 46.6 °F 29.31 in Calm     88 % 0.02 in 0.0 W/m2 OVC
08:37 50.0 °F 46.9 °F 29.32 in Calm     89 % 0.02 in 0.0 W/m2 OVC
08:42 50.0 °F 46.9 °F 29.32 in Calm     89 % 0.02 in 5.0 W/m2 OVC
08:47 50.0 °F 46.9 °F 29.32 in Calm     89 % 0.02 in 7.0 W/m2 BKN
08:52 50.0 °F 47.2 °F 29.31 in Calm     90 % 0.02 in 9.0 W/m2 BKN
09:07 50.0 °F 47.2 °F 29.31 in WSW 5.0 mph 5.0 mph 90 % 0.01 in 14.0 W/m2 BKN
09:13 50.0 °F 47.2 °F 29.31 in SW 3.5 mph 3.5 mph 90 % 0.01 in 18.0 W/m2 BKN
09:18 50.0 °F 46.9 °F 29.32 in WSW 3.5 mph 3.5 mph 89 % 0.00 in 19.0 W/m2 BKN
09:23 50.0 °F 46.6 °F 29.33 in Calm     88 % 0.00 in 23.0 W/m2 BKN
09:28 51.0 °F 47.6 °F 29.33 in Calm     88 % 0.00 in 25.0 W/m2 BKN
09:33 51.0 °F 47.6 °F 29.32 in Calm     88 % 0.00 in 23.0 W/m2 BKN
09:38 51.0 °F 47.6 °F 29.32 in Calm     88 % 0.00 in 26.0 W/m2 BKN
09:58 49.0 °F 43.4 °F 29.34 in WNW 4.0 mph 4.0 mph 81 % 0.00 in 14.0 W/m2 BKN
10:08 49.0 °F 43.1 °F 29.34 in WNW 6.9 mph 6.9 mph 80 % 0.01 in 28.0 W/m2 RA
10:13 49.0 °F 43.1 °F 29.34 in NW 8.1 mph 8.1 mph 80 % 0.01 in 42.0 W/m2 BKN
10:18 49.0 °F 42.8 °F 29.34 in WNW 8.1 mph 8.1 mph 79 % 0.01 in 56.0 W/m2 BKN
10:23 49.0 °F 42.4 °F 29.34 in WNW 9.2 mph 9.2 mph 78 % 0.01 in 54.0 W/m2 SCT
10:28 49.0 °F 42.8 °F 29.34 in WNW 8.1 mph 8.1 mph 79 % 0.01 in 49.0 W/m2 SCT
10:33 50.0 °F 43.1 °F 29.34 in WNW 11.5 mph 11.5 mph 77 % 0.01 in 54.0 W/m2 SCT
10:38 50.0 °F 42.0 °F 29.35 in WNW 13.8 mph 13.8 mph 74 % 0.01 in 56.0 W/m2 SCT
10:43 50.0 °F 41.3 °F 29.35 in NW 16.1 mph 16.1 mph 72 % 0.01 in 56.0 W/m2 SCT
10:48 50.0 °F 41.0 °F 29.35 in WNW 11.5 mph 11.5 mph 71 % 0.01 in 51.0 W/m2 SCT
10:53 50.0 °F 40.2 °F 29.35 in WNW 13.8 mph 13.8 mph 69 % 0.01 in 54.0 W/m2 SCT
10:58 51.0 °F 40.8 °F 29.35 in WNW 16.1 mph 16.1 mph 68 % 0.01 in 56.0 W/m2 SCT
11:03 51.0 °F 40.4 °F 29.36 in NW 11.5 mph 11.5 mph 67 % 0.01 in 54.0 W/m2 SCT
11:08 50.0 °F 39.5 °F 29.36 in WNW 13.0 mph 13.0 mph 67 % 0.00 in 63.0 W/m2 SCT
11:13 51.0 °F 40.4 °F 29.36 in WNW 10.4 mph 10.4 mph 67 % 0.00 in 72.0 W/m2 SCT
11:18 51.0 °F 40.8 °F 29.35 in West 11.5 mph 11.5 mph 68 % 0.00 in 86.0 W/m2 FEW
11:23 51.0 °F 41.6 °F 29.36 in WNW 5.8 mph 5.8 mph 70 % 0.00 in 95.0 W/m2 FEW
11:28 51.0 °F 41.6 °F 29.36 in NW 6.9 mph 6.9 mph 70 % 0.00 in 91.0 W/m2 CLR
11:33 51.0 °F 40.8 °F 29.36 in NW 9.2 mph 9.2 mph 68 % 0.00 in 88.0 W/m2 CLR
11:38 51.0 °F 40.8 °F 29.36 in NW 11.5 mph 11.5 mph 68 % 0.00 in 84.0 W/m2 CLR
11:43 51.0 °F 40.0 °F 29.36 in WNW 10.4 mph 10.4 mph 66 % 0.00 in 93.0 W/m2 CLR
11:48 51.0 °F 39.6 °F 29.36 in WNW 13.0 mph 13.0 mph 65 % 0.00 in 98.0 W/m2 CLR
11:53 51.0 °F 39.6 °F 29.36 in NNW 13.8 mph 13.8 mph 65 % 0.00 in 104.0 W/m2 CLR
11:58 52.0 °F 41.0 °F 29.36 in NW 11.5 mph 11.5 mph 66 % 0.00 in 118.0 W/m2 CLR
12:08 52.0 °F 40.2 °F 29.35 in NNW 12.7 mph 12.7 mph 64 % 0.00 in 130.0 W/m2 CLR
12:18 53.0 °F 40.3 °F 29.35 in NNE 11.5 mph 11.5 mph 62 % 0.00 in 151.0 W/m2 CLR
12:23 53.0 °F 40.3 °F 29.35 in North 10.0 mph 10.0 mph 62 % 0.00 in 156.0 W/m2 CLR
12:38 54.0 °F 41.3 °F 29.35 in North 8.1 mph 8.1 mph 62 % 0.00 in 169.0 W/m2 CLR
12:43 54.0 °F 41.3 °F 29.36 in NNW 11.5 mph 11.5 mph 62 % 0.00 in 162.0 W/m2 CLR
12:48 54.0 °F 41.3 °F 29.35 in NNW 11.5 mph 11.5 mph 62 % 0.00 in 163.0 W/m2 CLR
12:53 54.0 °F 40.8 °F 29.35 in NW 9.0 mph 9.0 mph 61 % 0.00 in 190.0 W/m2 CLR
12:58 55.0 °F 42.2 °F 29.36 in NNW 8.1 mph 8.1 mph 62 % 0.00 in 207.0 W/m2 CLR
13:03 55.0 °F 40.9 °F 29.35 in WNW 11.5 mph 11.5 mph 59 % 0.00 in 197.0 W/m2 CLR
13:08 55.0 °F 40.5 °F 29.35 in West 11.5 mph 11.5 mph 58 % 0.00 in 214.0 W/m2 CLR
13:18 55.0 °F 39.6 °F 29.36 in WNW 18.4 mph 18.4 mph 56 % 0.00 in 246.0 W/m2 CLR
13:28 56.0 °F 41.0 °F 29.36 in NW 19.6 mph 19.6 mph 57 % 0.00 in 269.0 W/m2 CLR
13:33 56.0 °F 40.5 °F 29.35 in NNW 25.3 mph 25.3 mph 56 % 0.00 in 545.0 W/m2 CLR
13:38 56.0 °F 41.0 °F 29.36 in NW 16.0 mph 16.0 mph 57 % 0.00 in 172.0 W/m2 CLR
13:43 56.0 °F 41.0 °F 29.36 in North 23.0 mph 23.0 mph 57 % 0.00 in 181.0 W/m2 CLR
13:48 55.0 °F 40.5 °F 29.36 in North 23.0 mph 23.0 mph 58 % 0.00 in 148.0 W/m2 CLR
13:58 54.0 °F 40.0 °F 29.37 in North 23.0 mph 23.0 mph 59 % 0.00 in 135.0 W/m2 CLR
14:03 54.0 °F 40.8 °F 29.37 in NNW 19.6 mph 19.6 mph 61 % 0.00 in 165.0 W/m2 CLR
14:08 54.0 °F 40.4 °F 29.37 in NW 17.3 mph 17.3 mph 60 % 0.00 in 163.0 W/m2 CLR
14:13 53.0 °F 39.9 °F 29.37 in NNW 20.7 mph 20.7 mph 61 % 0.00 in 153.0 W/m2 CLR
14:18 53.0 °F 39.5 °F 29.37 in NNW 25.0 mph 25.0 mph 60 % 0.00 in 160.0 W/m2 CLR
14:24 53.0 °F 40.7 °F 29.37 in NW 19.6 mph 19.6 mph 63 % 0.00 in 192.0 W/m2 CLR
14:29 53.0 °F 40.7 °F 29.37 in North 18.4 mph 18.4 mph 63 % 0.00 in 160.0 W/m2 CLR
14:34 53.0 °F 41.9 °F 29.39 in North 20.0 mph 20.0 mph 66 % 0.00 in 130.0 W/m2 CLR
14:39 52.0 °F 42.5 °F 29.40 in NNW 31.1 mph 31.1 mph 70 % 0.00 in 35.0 W/m2 CLR
14:44 50.0 °F 42.0 °F 29.38 in NW 12.7 mph 12.7 mph 74 % 0.01 in 121.0 W/m2 RA
14:49 49.0 °F 41.4 °F 29.39 in NW 19.6 mph 19.6 mph 75 % 0.01 in 141.0 W/m2 FEW
14:54 49.0 °F 41.8 °F 29.39 in NW 12.7 mph 12.7 mph 76 % 0.01 in 153.0 W/m2 CLR
14:59 49.0 °F 41.4 °F 29.39 in NNW 15.0 mph 15.0 mph 75 % 0.01 in 121.0 W/m2 CLR
15:04 49.0 °F 41.8 °F 29.39 in NW 11.5 mph 11.5 mph 76 % 0.01 in 153.0 W/m2 CLR
15:09 50.0 °F 42.4 °F 29.40 in NW 12.7 mph 12.7 mph 75 % 0.01 in 197.0 W/m2 CLR
15:39 53.0 °F 40.3 °F 29.41 in WNW 12.0 mph 12.0 mph 62 % 0.01 in 264.0 W/m2 CLR
15:44 54.0 °F 41.7 °F 29.41 in NW 12.0 mph 12.0 mph 63 % 0.00 in 171.0 W/m2 CLR
15:49 54.0 °F 41.3 °F 29.42 in NNW 12.7 mph 12.7 mph 62 % 0.00 in 153.0 W/m2 CLR
15:54 53.0 °F 38.6 °F 29.43 in North 18.4 mph 18.4 mph 58 % 0.00 in 76.0 W/m2 CLR
15:59 53.0 °F 36.8 °F 29.43 in NNW 13.8 mph 13.8 mph 54 % 0.00 in 62.0 W/m2 FEW
16:24 52.0 °F 34.9 °F 29.45 in North 10.4 mph 10.4 mph 52 % 0.00 in 47.0 W/m2 SCT
16:34 51.0 °F 33.5 °F 29.46 in North 12.7 mph 12.7 mph 51 % 0.00 in 23.0 W/m2 BKN
16:39 51.0 °F 34.0 °F 29.46 in North 8.1 mph 8.1 mph 52 % 0.00 in 21.0 W/m2 BKN
16:44 52.0 °F 34.9 °F 29.46 in North 10.4 mph 10.4 mph 52 % 0.00 in 42.0 W/m2 SCT
16:49 51.0 °F 34.0 °F 29.46 in Calm     52 % 0.00 in 39.0 W/m2 BKN
16:54 51.0 °F 33.5 °F 29.46 in North 9.2 mph 9.2 mph 51 % 0.00 in 35.0 W/m2 BKN
16:59 50.0 °F 33.5 °F 29.47 in NNW 10.4 mph 10.4 mph 53 % 0.00 in 19.0 W/m2 BKN
17:04 50.0 °F 34.0 °F 29.47 in Calm     54 % 0.00 in 19.0 W/m2 BKN
17:09 49.0 °F 33.1 °F 29.48 in NW 2.3 mph 2.3 mph 54 % 0.00 in 21.0 W/m2 BKN
17:14 48.0 °F 32.1 °F 29.48 in WNW 9.2 mph 9.2 mph 54 % 0.00 in 16.0 W/m2 BKN
17:19 47.0 °F 31.7 °F 29.49 in NW 10.4 mph 10.4 mph 55 % 0.00 in 12.0 W/m2 BKN
17:24 47.0 °F 31.7 °F 29.49 in WNW 5.8 mph 5.8 mph 55 % 0.00 in 9.0 W/m2 BKN
17:29 47.0 °F 32.1 °F 29.49 in WNW 8.1 mph 8.1 mph 56 % 0.00 in 5.0 W/m2 OVC
17:39 47.0 °F 33.0 °F 29.50 in WNW 6.9 mph 6.9 mph 58 % 0.00 in 0.0 W/m2 OVC
17:54 45.0 °F 31.9 °F 29.51 in WNW 8.1 mph 8.1 mph 60 % 0.00 in 0.0 W/m2 CLR
17:59 44.0 °F 31.0 °F 29.51 in WNW 5.8 mph 5.8 mph 60 % 0.00 in 0.0 W/m2 CLR
18:04 44.0 °F 31.0 °F 29.51 in West 8.1 mph 8.1 mph 60 % 0.00 in 0.0 W/m2 CLR
18:14 43.0 °F 30.9 °F 29.52 in West 6.9 mph 6.9 mph 62 % 0.00 in 0.0 W/m2 CLR
18:19 42.0 °F 29.9 °F 29.53 in WNW 6.9 mph 6.9 mph 62 % 0.00 in 0.0 W/m2 CLR
18:24 42.0 °F 30.3 °F 29.53 in WNW 8.1 mph 8.1 mph 63 % 0.00 in 0.0 W/m2 CLR
18:44 40.0 °F 25.1 °F 29.55 in NW 13.8 mph 13.8 mph 55 % 0.00 in 0.0 W/m2 CLR
18:49 40.0 °F 25.1 °F 29.55 in NW 12.7 mph 12.7 mph 55 % 0.00 in 0.0 W/m2 CLR
18:54 42.0 °F 27.0 °F 29.56 in NW 11.5 mph 11.5 mph 55 % 0.00 in 0.0 W/m2 CLR
18:59 43.0 °F 27.5 °F 29.56 in NW 13.0 mph 13.0 mph 54 % 0.00 in 0.0 W/m2 CLR
19:04 46.0 °F 30.3 °F 29.56 in NW 13.8 mph 13.8 mph 54 % 0.00 in 0.0 W/m2 CLR
19:09 46.0 °F 29.8 °F 29.57 in WNW 14.0 mph 14.0 mph 53 % 0.00 in 0.0 W/m2 CLR
19:14 47.0 °F 30.7 °F 29.57 in NW 13.0 mph 13.0 mph 53 % 0.00 in 0.0 W/m2 CLR
19:19 47.0 °F 30.3 °F 29.57 in WNW 15.0 mph 15.0 mph 52 % 0.00 in 0.0 W/m2 CLR
19:24 48.0 °F 31.2 °F 29.57 in NW 13.8 mph 13.8 mph 52 % 0.00 in 0.0 W/m2 CLR
19:34 47.0 °F 30.3 °F 29.57 in WNW 11.5 mph 11.5 mph 52 % 0.00 in 0.0 W/m2 CLR
19:36 47.0 °F 30.3 °F 29.58 in NW 13.8 mph 13.8 mph 52 % 0.00 in 0.0 W/m2 CLR
19:41 47.0 °F 30.3 °F 29.58 in NW 13.8 mph 13.8 mph 52 % 0.00 in 0.0 W/m2 CLR
19:51 47.0 °F 29.3 °F 29.58 in NW 13.8 mph 13.8 mph 50 % 0.00 in 0.0 W/m2 CLR
19:56 47.0 °F 29.3 °F 29.58 in WNW 15.0 mph 15.0 mph 50 % 0.00 in 0.0 W/m2 CLR
20:01 48.0 °F 30.7 °F 29.59 in WNW 16.1 mph 16.1 mph 51 % 0.00 in 0.0 W/m2 CLR
20:11 48.0 °F 30.7 °F 29.59 in NW 17.3 mph 17.3 mph 51 % 0.00 in 0.0 W/m2 CLR
20:26 48.0 °F 31.2 °F 29.60 in NW 11.5 mph 11.5 mph 52 % 0.00 in 0.0 W/m2 CLR
20:36 47.0 °F 30.3 °F 29.62 in NW 11.5 mph 11.5 mph 52 % 0.00 in 0.0 W/m2 CLR
20:41 47.0 °F 30.7 °F 29.62 in NW 9.2 mph 9.2 mph 53 % 0.00 in 0.0 W/m2 CLR
20:46 46.0 °F 30.3 °F 29.62 in NW 9.2 mph 9.2 mph 54 % 0.00 in 0.0 W/m2 CLR
20:47 46.0 °F 30.3 °F 29.62 in NW 9.2 mph 9.2 mph 54 % 0.00 in 0.0 W/m2 CLR
20:52 46.0 °F 30.3 °F 29.63 in WNW 8.1 mph 8.1 mph 54 % 0.00 in 0.0 W/m2 CLR
20:57 45.0 °F 29.3 °F 29.63 in WNW 6.9 mph 6.9 mph 54 % 0.00 in 0.0 W/m2 CLR
21:02 43.0 °F 27.9 °F 29.64 in Calm     55 % 0.00 in 0.0 W/m2 CLR
21:12 42.0 °F 27.4 °F 29.65 in Calm     56 % 0.00 in 0.0 W/m2 CLR
21:22 40.0 °F 26.0 °F 29.65 in Calm     57 % 0.00 in 0.0 W/m2 CLR
21:27 40.0 °F 26.4 °F 29.66 in Calm     58 % 0.00 in 0.0 W/m2 CLR
21:37 41.0 °F 28.2 °F 29.67 in Calm     60 % 0.00 in 0.0 W/m2 CLR
21:42 42.0 °F 29.1 °F 29.67 in NNW 9.2 mph 9.2 mph 60 % 0.00 in 0.0 W/m2 CLR
21:52 43.0 °F 29.6 °F 29.67 in NNW 11.5 mph 11.5 mph 59 % 0.00 in 0.0 W/m2 CLR
22:02 46.0 °F 33.3 °F 29.68 in North 11.5 mph 11.5 mph 61 % 0.00 in 0.0 W/m2 CLR
22:07 46.0 °F 33.3 °F 29.69 in North 11.5 mph 11.5 mph 61 % 0.00 in 0.0 W/m2 CLR
22:12 46.0 °F 33.3 °F 29.70 in North 13.8 mph 13.8 mph 61 % 0.00 in 0.0 W/m2 CLR
22:32 45.0 °F 33.9 °F 29.71 in NNW 12.0 mph 12.0 mph 65 % 0.00 in 0.0 W/m2 CLR
22:42 45.0 °F 34.7 °F 29.72 in NNW 15.0 mph 15.0 mph 67 % 0.00 in 0.0 W/m2 CLR
22:52 45.0 °F 35.1 °F 29.71 in NNW 13.8 mph 13.8 mph 68 % 0.00 in 0.0 W/m2 CLR
22:57 45.0 °F 35.4 °F 29.72 in NNW 12.7 mph 12.7 mph 69 % 0.00 in 0.0 W/m2 CLR
23:07 45.0 °F 35.8 °F 29.73 in NNW 11.5 mph 11.5 mph 70 % 0.00 in 0.0 W/m2 CLR
23:12 45.0 °F 36.2 °F 29.74 in North 6.9 mph 6.9 mph 71 % 0.00 in 0.0 W/m2 CLR
23:17 45.0 °F 36.2 °F 29.74 in NNW 13.8 mph 13.8 mph 71 % 0.00 in 0.0 W/m2 CLR
23:22 45.0 °F 36.2 °F 29.74 in North 13.0 mph 13.0 mph 71 % 0.00 in 0.0 W/m2 CLR
23:27 45.0 °F 36.2 °F 29.75 in NNW 10.4 mph 10.4 mph 71 % 0.00 in 0.0 W/m2 CLR
23:32 45.0 °F 36.2 °F 29.75 in NW 9.2 mph 9.2 mph 71 % 0.00 in 0.0 W/m2 CLR
23:37 45.0 °F 36.2 °F 29.75 in NW 10.4 mph 10.4 mph 71 % 0.00 in 0.0 W/m2 CLR
23:42 45.0 °F 36.5 °F 29.75 in NW 12.7 mph 12.7 mph 72 % 0.00 in 0.0 W/m2 CLR
23:47 44.0 °F 35.9 °F 29.75 in NNW 17.3 mph 17.3 mph 73 % 0.00 in 0.0 W/m2 CLR
23:52 44.0 °F 35.9 °F 29.76 in NNW 11.5 mph 11.5 mph 73 % 0.00 in 0.0 W/m2 CLR
23:57 44.0 °F 36.2 °F 29.76 in NNW 19.6 mph 19.6 mph 74 % 0.00 in 0.0 W/m2 CLR
Lo Temps de Massalio
Compliments of Weather Underground - 1 mb